Time;durP1;ratioP1;P1;durP2;ratioP2;P2;SDS_P1;SDS_P2;PMS_P1;PMS_P2;Temp;Humidity;BMP_temperature;BMP_pressure;BME280_temperature;BME280_humidity;BME280_pressure;Samples;Min_cycle;Max_cycle;Signal;HPM_P1;HPM_P2
2022/12/13 00:00:40;;;;;;;10.73;6.68;;;-6.40;99.90;;;;;;5102390;27;20500;-39
2022/12/13 00:03:06;;;;;;;9.27;7.00;;;-6.40;99.90;;;;;;5104191;28;20771;-38
2022/12/13 00:05:33;;;;;;;9.90;8.57;;;-6.40;99.90;;;;;;5106306;28;20023;-38
2022/12/13 00:08:01;;;;;;;13.20;8.25;;;-6.40;99.90;;;;;;5102854;28;20020;-38
2022/12/13 00:10:27;;;;;;;9.30;7.07;;;-6.40;99.90;;;;;;5103538;28;20019;-39
2022/12/13 00:12:53;;;;;;;12.10;5.88;;;-6.30;99.90;;;;;;5101757;27;20042;-38
2022/12/13 00:15:18;;;;;;;15.43;8.60;;;-6.40;99.90;;;;;;5104700;28;20034;-39
2022/12/13 00:17:44;;;;;;;12.00;8.02;;;-6.50;99.90;;;;;;5099785;28;20024;-38
2022/12/13 00:20:11;;;;;;;14.52;8.50;;;-6.50;99.90;;;;;;5103905;27;20023;-38
2022/12/13 00:22:36;;;;;;;8.23;6.88;;;-6.70;99.90;;;;;;5106414;28;20049;-39
2022/12/13 00:25:03;;;;;;;9.10;7.00;;;-6.70;99.90;;;;;;5095252;27;20027;-36
2022/12/13 00:27:29;;;;;;;11.05;8.50;;;-6.60;99.90;;;;;;5085697;27;20121;-36
2022/12/13 00:29:54;;;;;;;9.27;7.07;;;-6.60;99.90;;;;;;5104232;27;20299;-39
2022/12/13 00:32:20;;;;;;;9.43;6.80;;;-6.70;99.90;;;;;;5104770;28;20032;-37
2022/12/13 00:34:45;;;;;;;9.10;6.72;;;-6.80;99.90;;;;;;5104345;27;20057;-35
2022/12/13 00:37:11;;;;;;;10.90;7.30;;;-6.80;99.90;;;;;;5100284;27;20024;-39
2022/12/13 00:39:37;;;;;;;13.40;8.13;;;-6.80;99.90;;;;;;5107545;28;20023;-38
2022/12/13 00:42:03;;;;;;;9.88;7.07;;;-6.80;99.90;;;;;;5102546;28;20042;-38
2022/12/13 00:44:30;;;;;;;18.92;9.30;;;-6.70;99.90;;;;;;5105241;28;20024;-39
2022/12/13 00:46:55;;;;;;;11.57;6.63;;;-6.60;99.90;;;;;;5105123;27;20051;-38
2022/12/13 00:49:21;;;;;;;7.22;5.15;;;-6.70;99.90;;;;;;5105389;27;20509;-39
2022/12/13 00:51:48;;;;;;;14.40;7.75;;;-6.70;99.90;;;;;;5102237;28;20028;-38
2022/12/13 00:54:14;;;;;;;9.60;6.40;;;-6.70;99.90;;;;;;5103554;27;20035;-38
2022/12/13 00:56:40;;;;;;;6.50;5.90;;;-6.70;99.90;;;;;;5103388;28;20061;-37
2022/12/13 00:59:06;;;;;;;13.10;7.85;;;-6.60;99.90;;;;;;5105879;28;20084;-39
2022/12/13 01:01:35;;;;;;;12.65;8.23;;;-6.50;99.90;;;;;;5106604;27;20096;-39
2022/12/13 01:04:03;;;;;;;8.50;7.32;;;-6.50;99.90;;;;;;5095032;27;20070;-37
2022/12/13 01:06:38;;;;;;;9.40;6.18;;;-6.50;99.90;;;;;;5092416;27;20108;-36
2022/12/13 01:09:13;;;;;;;11.55;7.07;;;-6.50;99.90;;;;;;5090846;27;20930;-37
2022/12/13 01:11:38;;;;;;;8.85;4.82;;;-6.40;99.90;;;;;;5088687;27;20031;-38
2022/12/13 01:14:04;;;;;;;7.40;5.13;;;-6.40;99.90;;;;;;5089675;27;20030;-35
2022/12/13 01:16:29;;;;;;;6.50;5.90;;;-6.50;99.90;;;;;;5089095;27;20059;-36
2022/12/13 01:18:56;;;;;;;9.20;6.85;;;-6.50;99.90;;;;;;5085811;27;20377;-37
2022/12/13 01:21:22;;;;;;;7.38;4.82;;;-6.40;99.90;;;;;;5087944;27;20043;-37
2022/12/13 01:23:48;;;;;;;6.88;5.28;;;-6.40;99.90;;;;;;5089547;27;20031;-34
2022/12/13 01:26:16;;;;;;;5.35;4.95;;;-6.40;99.90;;;;;;5086984;27;20023;-37
2022/12/13 01:28:42;;;;;;;13.75;7.03;;;-6.50;99.90;;;;;;5088164;27;20036;-36
2022/12/13 01:31:12;;;;;;;8.05;6.43;;;-6.50;99.90;;;;;;5087118;27;20050;-37
2022/12/13 01:33:39;;;;;;;10.40;7.63;;;-6.60;99.90;;;;;;5088523;28;20142;-38
2022/12/13 01:36:08;;;;;;;11.88;6.82;;;-6.80;99.90;;;;;;5086667;27;20059;-37
2022/12/13 01:38:34;;;;;;;7.72;6.88;;;-6.80;99.90;;;;;;5087181;27;20023;-37
2022/12/13 01:41:00;;;;;;;9.23;7.55;;;-6.90;99.90;;;;;;5088593;28;20586;-35
2022/12/13 01:43:50;;;;;;;11.38;7.75;;;-6.80;99.90;;;;;;5087873;28;20035;-38
2022/12/13 01:46:17;;;;;;;9.95;6.55;;;-7.10;99.90;;;;;;5087787;28;20047;-38
2022/12/13 01:48:52;;;;;;;16.23;8.85;;;-7.20;99.90;;;;;;5088416;27;20035;-38
2022/12/13 01:51:23;;;;;;;11.45;6.28;;;-7.30;99.90;;;;;;5087690;28;20130;-37
2022/12/13 01:53:50;;;;;;;10.15;5.40;;;-7.30;99.90;;;;;;5088590;28;20141;-35
2022/12/13 01:56:39;;;;;;;9.33;6.97;;;-7.10;99.90;;;;;;5089580;28;20028;-39
2022/12/13 01:59:05;;;;;;;14.27;7.45;;;-7.00;99.90;;;;;;5100145;28;20514;-38
2022/12/13 02:01:31;;;;;;;12.45;7.20;;;-7.10;99.90;;;;;;5103686;28;20036;-39
2022/12/13 02:03:57;;;;;;;6.85;6.25;;;-7.20;99.90;;;;;;5108650;27;20429;-38
2022/12/13 02:06:30;;;;;;;10.35;7.63;;;-7.10;99.90;;;;;;5106822;27;20349;-38
2022/12/13 02:08:56;;;;;;;13.15;7.90;;;-7.20;99.90;;;;;;5109914;27;20546;-39
2022/12/13 02:11:22;;;;;;;8.05;6.80;;;-7.20;99.90;;;;;;5108755;27;20034;-38
2022/12/13 02:13:47;;;;;;;8.05;6.13;;;-7.40;99.90;;;;;;5105615;28;20027;-39
2022/12/13 02:16:39;;;;;;;6.68;5.53;;;-7.40;99.90;;;;;;5108481;28;20126;-36
2022/12/13 02:19:07;;;;;;;10.93;7.47;;;-7.40;99.90;;;;;;5107289;27;20036;-38
2022/12/13 02:21:53;;;;;;;10.65;8.02;;;-7.30;99.90;;;;;;5104461;27;20036;-39
2022/12/13 02:24:47;;;;;;;6.22;5.72;;;-7.30;99.90;;;;;;5103714;28;20038;-37
2022/12/13 02:27:26;;;;;;;6.85;6.15;;;-7.30;99.90;;;;;;5102520;27;20384;-39
2022/12/13 02:30:21;;;;;;;12.50;5.97;;;-7.40;99.90;;;;;;5106979;28;20097;-38
2022/12/13 02:33:02;;;;;;;13.02;7.53;;;-7.40;99.90;;;;;;5097845;27;20071;-38
2022/12/13 02:35:43;;;;;;;10.70;5.85;;;-7.50;99.90;;;;;;5104160;28;20036;-39
2022/12/13 02:38:31;;;;;;;7.18;6.18;;;-7.60;99.90;;;;;;5105378;28;20115;-39
2022/12/13 02:41:09;;;;;;;10.02;7.13;;;-7.50;99.90;;;;;;5105706;28;20048;-39
2022/12/13 02:43:51;;;;;;;10.68;7.35;;;-7.40;99.90;;;;;;5105251;27;20034;-38
2022/12/13 02:46:20;;;;;;;8.40;6.15;;;-7.50;99.90;;;;;;5106091;28;20110;-39
2022/12/13 02:48:48;;;;;;;10.45;7.85;;;-7.60;99.90;;;;;;5104941;28;20599;-39
2022/12/13 02:51:16;;;;;;;10.38;6.55;;;-7.60;99.90;;;;;;5106236;27;20031;-39
2022/12/13 02:53:43;;;;;;;16.02;8.05;;;-7.60;99.90;;;;;;5106679;28;20162;-40
2022/12/13 02:56:09;;;;;;;8.32;6.18;;;-7.60;99.90;;;;;;5105659;28;20020;-39
2022/12/13 02:58:39;;;;;;;7.90;6.20;;;-7.50;99.90;;;;;;5103543;27;20699;-39
2022/12/13 03:01:23;;;;;;;11.40;7.68;;;-7.50;99.90;;;;;;5105255;28;20032;-40
2022/12/13 03:04:13;;;;;;;7.25;6.28;;;-7.60;99.90;;;;;;5104030;27;20098;-38
2022/12/13 03:07:04;;;;;;;14.05;8.50;;;-7.60;99.90;;;;;;5106849;27;20565;-38
2022/12/13 03:09:44;;;;;;;7.53;6.65;;;-7.60;99.90;;;;;;5102001;27;20056;-38
2022/12/13 03:15:14;;;;;;;8.48;6.07;;;-7.90;99.90;;;;;;5108411;27;20624;-39
2022/12/13 03:18:03;;;;;;;7.30;4.80;;;-8.00;99.90;;;;;;5107718;27;20107;-40
2022/12/13 03:20:29;;;;;;;6.22;5.47;;;-8.00;99.90;;;;;;5104066;28;20485;-38
2022/12/13 03:22:56;;;;;;;12.45;8.52;;;-7.90;99.90;;;;;;5104815;28;20027;-39
2022/12/13 03:25:24;;;;;;;15.80;8.95;;;-7.90;99.90;;;;;;5108156;27;20019;-39
2022/12/13 03:27:51;;;;;;;13.30;8.85;;;-7.90;99.90;;;;;;5107141;27;20038;-39
2022/12/13 03:30:17;;;;;;;9.63;8.23;;;-8.00;99.90;;;;;;5106798;28;20027;-36
2022/12/13 03:32:42;;;;;;;11.10;8.38;;;-8.10;99.90;;;;;;5103710;27;20093;-36
2022/12/13 03:35:08;;;;;;;14.30;8.18;;;-8.10;99.90;;;;;;5105287;28;20038;-39
2022/12/13 03:37:34;;;;;;;11.65;7.60;;;-8.20;99.90;;;;;;5105576;28;20032;-38
2022/12/13 03:40:00;;;;;;;9.50;5.30;;;-8.20;99.90;;;;;;5104391;28;20059;-39
2022/12/13 03:42:25;;;;;;;6.78;5.78;;;-8.10;99.90;;;;;;5103760;27;20024;-38
2022/12/13 03:44:51;;;;;;;8.93;5.95;;;-8.20;99.90;;;;;;5108389;27;20023;-38
2022/12/13 03:47:17;;;;;;;10.60;6.93;;;-8.20;99.90;;;;;;5106756;27;20820;-39
2022/12/13 03:49:42;;;;;;;8.88;7.40;;;-8.30;99.90;;;;;;5106273;27;20031;-39
2022/12/13 03:52:08;;;;;;;7.00;6.35;;;-8.20;99.90;;;;;;5087949;28;20076;-36
2022/12/13 03:54:33;;;;;;;10.32;5.65;;;-8.10;99.90;;;;;;5103999;28;20038;-37
2022/12/13 03:56:59;;;;;;;7.43;6.20;;;-8.20;99.90;;;;;;5106777;27;20023;-38
2022/12/13 03:59:25;;;;;;;5.80;5.28;;;-8.00;99.90;;;;;;5103068;27;20032;-39
2022/12/13 04:01:51;;;;;;;8.75;6.50;;;-7.90;99.90;;;;;;5107501;27;20035;-40
2022/12/13 04:04:16;;;;;;;13.40;6.75;;;-7.70;99.90;;;;;;5099353;27;20824;-39
2022/12/13 04:06:42;;;;;;;6.38;5.78;;;-7.80;99.90;;;;;;5104820;28;20027;-39
2022/12/13 04:09:07;;;;;;;6.13;5.60;;;-7.70;99.90;;;;;;5100615;27;20026;-38
2022/12/13 04:14:17;;;;;;;10.05;5.78;;;-7.70;99.90;;;;;;5102306;27;20042;-39
2022/12/13 04:16:43;;;;;;;6.95;6.00;;;-7.80;99.90;;;;;;5107758;28;20475;-39
2022/12/13 04:19:08;;;;;;;13.90;8.95;;;-8.00;99.90;;;;;;5101990;27;20019;-38
2022/12/13 04:21:34;;;;;;;10.30;7.10;;;-8.00;99.90;;;;;;5104726;27;20484;-40
2022/12/13 04:24:00;;;;;;;8.38;6.32;;;-8.30;99.90;;;;;;5102280;28;20396;-37
2022/12/13 04:26:25;;;;;;;13.00;6.60;;;-8.30;99.90;;;;;;5101172;27;20058;-39
2022/12/13 04:28:51;;;;;;;8.95;6.00;;;-8.40;99.90;;;;;;5102109;28;20125;-40
2022/12/13 04:31:16;;;;;;;8.48;6.25;;;-8.50;99.90;;;;;;5103912;28;20453;-38
2022/12/13 04:33:42;;;;;;;7.93;5.50;;;-8.50;99.90;;;;;;5101521;28;20023;-39
2022/12/13 04:36:08;;;;;;;13.35;6.80;;;-8.50;99.90;;;;;;5104623;27;20023;-38
2022/12/13 04:38:33;;;;;;;13.38;8.45;;;-8.40;99.90;;;;;;5106976;28;20027;-39
2022/12/13 04:41:17;;;;;;;13.60;7.78;;;-8.50;99.90;;;;;;5098841;28;20043;-38
2022/12/13 04:43:43;;;;;;;12.20;8.10;;;-8.50;99.90;;;;;;5100369;28;20047;-39
2022/12/13 04:46:09;;;;;;;16.60;9.25;;;-8.70;99.90;;;;;;5101446;28;20035;-40
2022/12/13 04:48:35;;;;;;;11.75;8.45;;;-8.70;99.90;;;;;;5107817;27;20358;-39
2022/12/13 04:51:00;;;;;;;14.25;9.40;;;-8.90;99.90;;;;;;5108985;27;20115;-38
2022/12/13 04:53:27;;;;;;;11.10;8.80;;;-8.90;99.90;;;;;;5104013;28;20027;-38
2022/12/13 04:55:53;;;;;;;13.77;8.93;;;-9.00;99.90;;;;;;5101869;28;20114;-39
2022/12/13 04:58:19;;;;;;;11.35;8.13;;;-9.00;99.90;;;;;;5102754;28;20115;-40
2022/12/13 05:00:44;;;;;;;16.75;8.70;;;-9.00;99.90;;;;;;5101691;27;20036;-37
2022/12/13 05:03:10;;;;;;;12.70;7.75;;;-9.10;99.90;;;;;;5106642;28;20018;-38
2022/12/13 05:05:39;;;;;;;19.63;9.38;;;-9.20;99.90;;;;;;5100949;27;20020;-38
2022/12/13 05:08:06;;;;;;;22.13;12.20;;;-9.20;99.90;;;;;;5102921;27;20661;-39
2022/12/13 05:10:32;;;;;;;18.90;10.82;;;-9.30;99.90;;;;;;5103136;28;20043;-37
2022/12/13 05:12:58;;;;;;;15.48;9.65;;;-9.30;99.90;;;;;;5105678;27;20031;-37
2022/12/13 05:15:24;;;;;;;20.90;11.07;;;-9.30;99.90;;;;;;5103938;28;20530;-38
2022/12/13 05:17:50;;;;;;;15.27;8.65;;;-9.30;99.90;;;;;;5104898;28;20032;-38
2022/12/13 05:20:15;;;;;;;19.73;10.60;;;-9.30;99.90;;;;;;5101831;28;20483;-39
2022/12/13 05:22:41;;;;;;;19.67;8.52;;;-9.40;99.90;;;;;;5101528;28;20024;-39
2022/12/13 05:25:07;;;;;;;13.25;9.70;;;-9.40;99.90;;;;;;5105500;27;20088;-39
2022/12/13 05:27:33;;;;;;;17.92;9.13;;;-9.40;99.90;;;;;;5116888;27;20365;-39
2022/12/13 05:29:59;;;;;;;13.57;8.95;;;-9.30;99.90;;;;;;5103670;28;20031;-37
2022/12/13 05:32:24;;;;;;;10.77;6.97;;;-9.40;99.90;;;;;;5106650;28;20056;-39
2022/12/13 05:34:50;;;;;;;7.05;5.90;;;-9.30;99.90;;;;;;5100962;28;20028;-39
2022/12/13 05:37:15;;;;;;;19.60;8.70;;;-9.20;99.90;;;;;;5100126;28;20020;-39
2022/12/13 05:39:41;;;;;;;16.67;9.00;;;-9.20;99.90;;;;;;5101057;28;20032;-39
2022/12/13 05:42:06;;;;;;;9.32;7.20;;;-9.20;99.90;;;;;;5099947;28;20028;-39
2022/12/13 05:44:32;;;;;;;12.23;8.07;;;-9.30;99.90;;;;;;5104631;28;20027;-39
2022/12/13 05:46:59;;;;;;;12.52;6.82;;;-9.30;99.90;;;;;;5098884;28;20047;-39
2022/12/13 05:49:24;;;;;;;13.25;8.65;;;-9.20;99.90;;;;;;5100662;28;20094;-38
2022/12/13 05:51:50;;;;;;;15.23;8.05;;;-9.20;99.90;;;;;;5105940;28;20024;-39
2022/12/13 05:54:15;;;;;;;9.95;7.35;;;-9.30;99.90;;;;;;5100151;28;20089;-37
2022/12/13 05:56:41;;;;;;;15.43;8.20;;;-9.30;99.90;;;;;;5096652;28;20054;-37
2022/12/13 05:59:07;;;;;;;7.18;5.35;;;-9.30;99.90;;;;;;5101420;28;20071;-37
2022/12/13 06:01:32;;;;;;;11.93;7.07;;;-9.40;99.90;;;;;;5104228;28;20038;-37
2022/12/13 06:03:58;;;;;;;10.45;6.63;;;-9.30;99.90;;;;;;5106991;28;20031;-38
2022/12/13 06:06:24;;;;;;;9.27;8.07;;;-9.30;99.90;;;;;;5103159;28;20028;-38
2022/12/13 06:08:49;;;;;;;12.07;7.38;;;-9.30;99.90;;;;;;5092259;28;20031;-39
2022/12/13 06:11:15;;;;;;;9.98;7.00;;;-9.30;99.90;;;;;;5099610;28;20024;-37
2022/12/13 06:13:42;;;;;;;14.45;8.45;;;-9.40;99.90;;;;;;5102195;28;20028;-38
2022/12/13 06:16:08;;;;;;;11.55;7.68;;;-9.30;99.90;;;;;;5096763;28;20020;-38
2022/12/13 06:18:34;;;;;;;8.15;5.05;;;-9.30;99.90;;;;;;5101803;28;20043;-40
2022/12/13 06:21:03;;;;;;;7.88;7.13;;;-9.30;99.90;;;;;;5101673;28;20035;-39
2022/12/13 06:23:30;;;;;;;12.32;7.90;;;-9.20;99.90;;;;;;5099692;28;20028;-38
2022/12/13 06:25:55;;;;;;;7.53;5.63;;;-9.20;99.90;;;;;;5098426;28;20075;-37
2022/12/13 06:28:21;;;;;;;14.10;8.30;;;-9.20;99.90;;;;;;5097074;28;20708;-38
2022/12/13 06:30:51;;;;;;;8.52;6.38;;;-9.20;99.90;;;;;;5099455;28;20153;-37
2022/12/13 06:33:18;;;;;;;13.73;7.82;;;-9.20;99.90;;;;;;5103125;28;20023;-36
2022/12/13 06:35:43;;;;;;;9.27;6.50;;;-9.10;99.90;;;;;;5101680;28;20038;-39
2022/12/13 06:38:09;;;;;;;19.00;8.95;;;-9.10;99.90;;;;;;5103400;28;20031;-39
2022/12/13 06:40:35;;;;;;;7.50;6.40;;;-9.20;99.90;;;;;;5103148;28;20040;-39
2022/12/13 06:43:00;;;;;;;8.77;6.70;;;-9.30;99.90;;;;;;5100534;28;20035;-38
2022/12/13 06:45:26;;;;;;;7.95;7.03;;;-9.30;99.90;;;;;;5101049;28;20035;-36
2022/12/13 06:47:52;;;;;;;13.80;7.18;;;-9.30;99.90;;;;;;5104115;28;20528;-38
2022/12/13 06:50:17;;;;;;;15.50;8.65;;;-9.30;99.90;;;;;;5105808;28;20031;-38
2022/12/13 06:52:45;;;;;;;16.48;7.22;;;-9.30;99.90;;;;;;5107343;27;20062;-37
2022/12/13 06:55:11;;;;;;;9.48;7.55;;;-9.40;99.90;;;;;;5107070;27;20063;-39
2022/12/13 06:57:36;;;;;;;11.13;7.65;;;-9.40;99.90;;;;;;5100004;27;20062;-39
2022/12/13 07:00:03;;;;;;;10.13;6.90;;;-9.40;99.90;;;;;;5107293;27;20103;-36
2022/12/13 07:02:30;;;;;;;6.75;6.13;;;-9.40;99.90;;;;;;5103579;27;20161;-39
2022/12/13 07:04:56;;;;;;;18.65;8.10;;;-9.20;99.90;;;;;;5094224;27;20070;-36
2022/12/13 07:07:23;;;;;;;7.57;6.95;;;-9.10;99.90;;;;;;5089894;27;20173;-36
2022/12/13 07:09:49;;;;;;;5.77;5.07;;;-9.00;99.90;;;;;;5091160;27;20276;-39
2022/12/13 07:12:14;;;;;;;12.77;7.38;;;-8.90;99.90;;;;;;5090755;27;20032;-37
2022/12/13 07:14:40;;;;;;;10.57;8.10;;;-9.00;99.90;;;;;;5092882;27;20739;-40
2022/12/13 07:17:06;;;;;;;11.57;6.20;;;-9.10;99.90;;;;;;5093969;27;20039;-37
2022/12/13 07:19:31;;;;;;;11.85;6.65;;;-9.10;99.90;;;;;;5091318;27;21786;-38
2022/12/13 07:21:57;;;;;;;9.90;8.50;;;-9.10;99.90;;;;;;5091819;27;20023;-37
2022/12/13 07:24:22;;;;;;;20.35;8.27;;;-9.10;99.90;;;;;;5107983;28;20023;-36
2022/12/13 07:26:48;;;;;;;8.10;6.88;;;-9.00;99.90;;;;;;5096852;27;20114;-36
2022/12/13 07:29:14;;;;;;;7.00;6.50;;;-9.00;99.90;;;;;;5091905;27;20036;-37
2022/12/13 07:31:39;;;;;;;12.73;7.22;;;-8.90;99.90;;;;;;5100456;27;20035;-37
2022/12/13 07:34:05;;;;;;;11.52;8.80;;;-8.90;99.90;;;;;;5102238;27;20597;-38
2022/12/13 07:36:30;;;;;;;10.65;6.03;;;-8.90;99.90;;;;;;5097137;28;20081;-37
2022/12/13 07:38:57;;;;;;;15.10;7.57;;;-8.90;99.90;;;;;;5100237;27;20549;-39
2022/12/13 07:41:24;;;;;;;9.45;6.78;;;-8.80;99.90;;;;;;5104461;28;20040;-38
2022/12/13 07:43:51;;;;;;;9.73;7.13;;;-8.70;99.90;;;;;;5105935;28;20031;-39
2022/12/13 07:46:16;;;;;;;14.63;8.65;;;-8.80;99.90;;;;;;5102366;28;20788;-37
2022/12/13 07:48:42;;;;;;;18.05;9.73;;;-8.80;99.90;;;;;;5100513;27;20115;-37
2022/12/13 07:51:10;;;;;;;8.65;7.35;;;-8.90;99.90;;;;;;5104002;27;20028;-39
2022/12/13 07:53:36;;;;;;;8.50;6.60;;;-9.00;99.90;;;;;;5097890;27;20055;-38
2022/12/13 07:56:08;;;;;;;9.43;6.78;;;-9.00;99.90;;;;;;5095274;27;20127;-38
2022/12/13 07:58:33;;;;;;;9.00;6.97;;;-9.00;99.90;;;;;;5097018;28;20031;-39
2022/12/13 08:01:05;;;;;;;16.33;10.48;;;-9.00;99.90;;;;;;5097335;28;20039;-39
2022/12/13 08:03:30;;;;;;;22.38;13.85;;;-8.90;99.90;;;;;;5098358;28;20027;-39
2022/12/13 08:06:01;;;;;;;14.68;8.88;;;-8.90;99.90;;;;;;5096039;27;20062;-38
2022/12/13 08:08:26;;;;;;;18.67;12.45;;;-8.80;99.90;;;;;;5100767;28;20081;-37
2022/12/13 08:10:52;;;;;;;14.70;9.95;;;-8.80;99.90;;;;;;5100993;28;20027;-39
2022/12/13 08:13:18;;;;;;;12.07;9.00;;;-8.80;99.90;;;;;;5097161;28;20554;-38
2022/12/13 08:15:43;;;;;;;23.65;12.88;;;-8.80;99.90;;;;;;5097313;28;20459;-39
2022/12/13 08:18:09;;;;;;;23.77;11.45;;;-8.60;99.90;;;;;;5101328;28;20126;-39
2022/12/13 08:20:34;;;;;;;17.52;10.50;;;-8.60;99.90;;;;;;5098823;28;20047;-39
2022/12/13 08:23:00;;;;;;;21.73;10.18;;;-8.50;99.90;;;;;;5096736;28;20028;-39
2022/12/13 08:25:25;;;;;;;26.15;12.38;;;-8.40;99.90;;;;;;5104876;27;20610;-38
2022/12/13 08:27:51;;;;;;;31.52;17.63;;;-8.30;99.90;;;;;;5105108;27;20032;-37
2022/12/13 08:30:17;;;;;;;23.55;13.05;;;-8.10;99.90;;;;;;5107484;27;20062;-36
2022/12/13 08:32:43;;;;;;;27.98;14.65;;;-7.90;99.90;;;;;;5102238;28;20031;-38
2022/12/13 08:35:09;;;;;;;29.02;15.45;;;-7.80;99.90;;;;;;5101635;27;20036;-37
2022/12/13 08:37:35;;;;;;;23.33;11.48;;;-7.70;99.90;;;;;;5103521;28;20076;-38
2022/12/13 08:40:02;;;;;;;23.85;13.18;;;-7.60;99.90;;;;;;5102019;27;20055;-38
2022/12/13 08:42:28;;;;;;;22.55;11.63;;;-7.60;99.90;;;;;;5100010;28;20020;-40
2022/12/13 08:44:54;;;;;;;27.17;14.80;;;-7.60;99.90;;;;;;5098753;28;20485;-37
2022/12/13 08:47:22;;;;;;;23.42;12.90;;;-7.50;99.90;;;;;;5097949;28;20024;-38
2022/12/13 08:49:47;;;;;;;28.27;14.73;;;-7.50;99.90;;;;;;5103375;28;20024;-37
2022/12/13 08:52:13;;;;;;;32.42;17.48;;;-7.40;99.90;;;;;;5100874;28;21064;-36
2022/12/13 08:54:38;;;;;;;23.00;10.60;;;-7.40;99.90;;;;;;5100516;28;20047;-38
2022/12/13 08:57:04;;;;;;;31.25;16.95;;;-7.30;99.90;;;;;;5102554;27;20030;-39
2022/12/13 08:59:30;;;;;;;22.13;11.20;;;-7.30;99.90;;;;;;5099223;27;20109;-38
2022/12/13 09:01:56;;;;;;;24.77;13.23;;;-7.30;99.90;;;;;;5102025;28;20047;-37
2022/12/13 09:04:21;;;;;;;20.05;10.82;;;-7.20;99.90;;;;;;5105875;28;20076;-39
2022/12/13 09:06:47;;;;;;;19.98;11.75;;;-7.10;99.90;;;;;;5104705;28;20027;-36
2022/12/13 09:09:12;;;;;;;30.92;14.65;;;-7.10;99.90;;;;;;5099964;28;20032;-37
2022/12/13 09:11:42;;;;;;;23.13;13.35;;;-7.10;99.90;;;;;;5099153;28;20028;-38
2022/12/13 09:14:08;;;;;;;20.95;11.13;;;-7.00;99.90;;;;;;5103485;28;20031;-37
2022/12/13 09:16:35;;;;;;;25.17;13.07;;;-7.00;99.90;;;;;;5103728;28;20495;-38
2022/12/13 09:19:01;;;;;;;34.55;16.42;;;-7.00;99.90;;;;;;5103817;27;20430;-38
2022/12/13 09:21:27;;;;;;;32.53;15.60;;;-6.90;99.90;;;;;;5102019;28;20053;-38
2022/12/13 09:23:53;;;;;;;22.48;12.82;;;-6.90;99.90;;;;;;5099924;28;20024;-37
2022/12/13 09:26:19;;;;;;;23.83;12.55;;;-6.80;99.90;;;;;;5103751;27;20486;-39
2022/12/13 09:28:45;;;;;;;21.42;11.73;;;-6.80;99.90;;;;;;5103512;27;20028;-39
2022/12/13 09:31:17;;;;;;;24.38;11.07;;;-6.90;99.90;;;;;;5106573;28;20035;-38
2022/12/13 09:33:44;;;;;;;20.90;9.43;;;-6.80;99.90;;;;;;5101428;28;20032;-39
2022/12/13 09:36:12;;;;;;;14.38;8.18;;;-6.80;99.90;;;;;;5103261;28;20028;-38
2022/12/13 09:38:38;;;;;;;32.35;15.50;;;-6.70;99.90;;;;;;5100793;28;20186;-37
2022/12/13 09:41:14;;;;;;;26.95;12.80;;;-6.70;99.90;;;;;;5106787;28;20618;-39
2022/12/13 09:43:42;;;;;;;30.95;14.13;;;-6.70;99.90;;;;;;5113503;28;20027;-40
2022/12/13 09:46:20;;;;;;;24.35;12.30;;;-6.60;99.90;;;;;;5102453;28;20023;-37
2022/12/13 09:48:46;;;;;;;14.13;8.30;;;-6.70;99.90;;;;;;5102116;28;20118;-37
2022/12/13 09:51:11;;;;;;;24.65;12.18;;;-6.60;99.90;;;;;;5101647;28;20114;-40
2022/12/13 09:53:39;;;;;;;23.10;10.10;;;-6.60;99.90;;;;;;5099164;28;20123;-39
2022/12/13 09:56:09;;;;;;;29.73;12.82;;;-6.60;99.90;;;;;;5097327;28;20058;-37
2022/12/13 09:58:36;;;;;;;29.20;13.80;;;-6.60;99.90;;;;;;5100516;28;20028;-40
2022/12/13 10:01:04;;;;;;;30.95;13.40;;;-6.50;99.90;;;;;;5100672;28;20043;-38
2022/12/13 10:03:30;;;;;;;;;;;-6.50;99.90;;;;;;5106844;28;20031;-39
2022/12/13 10:06:07;;;;;;;23.60;10.88;;;-6.50;99.90;;;;;;5104367;28;19923;-38
2022/12/13 10:08:40;;;;;;;22.92;9.45;;;-6.40;99.90;;;;;;5102946;28;20039;-37
2022/12/13 10:11:05;;;;;;;17.02;9.82;;;-6.40;99.90;;;;;;5097723;28;20114;-37
2022/12/13 10:13:45;;;;;;;26.20;13.57;;;-6.30;99.90;;;;;;5102980;28;20024;-38
2022/12/13 10:16:30;;;;;;;15.35;9.13;;;-6.30;99.90;;;;;;5102289;28;20532;-39
2022/12/13 10:18:55;;;;;;;11.57;7.70;;;-6.20;99.90;;;;;;5102083;28;20024;-39
2022/12/13 10:21:32;;;;;;;25.85;10.68;;;-6.20;99.90;;;;;;5103352;28;20038;-38
2022/12/13 10:24:20;;;;;;;28.83;12.70;;;-6.20;99.90;;;;;;5103318;28;20071;-38
2022/12/13 10:26:46;;;;;;;20.67;10.35;;;-6.10;99.90;;;;;;5099868;28;20107;-37
2022/12/13 10:29:11;;;;;;;23.55;10.63;;;-6.10;99.90;;;;;;5102812;28;20115;-38
2022/12/13 10:31:46;;;;;;;29.17;12.95;;;-6.00;99.90;;;;;;5100855;27;20685;-37
2022/12/13 10:34:34;;;;;;;11.23;7.25;;;-6.00;99.90;;;;;;5101530;28;20028;-38
2022/12/13 10:37:30;;;;;;;12.93;8.52;;;-6.00;99.90;;;;;;5103041;28;20042;-39
2022/12/13 10:39:57;;;;;;;19.00;9.52;;;-5.90;99.90;;;;;;5100886;28;20040;-39
2022/12/13 10:42:24;;;;;;;15.15;9.07;;;-5.80;99.90;;;;;;5097431;27;20027;-38
2022/12/13 10:45:16;;;;;;;26.92;11.82;;;-5.80;99.90;;;;;;5101908;28;20039;-38
2022/12/13 10:47:45;;;;;;;21.00;10.23;;;-5.70;99.90;;;;;;5103001;28;20036;-38
2022/12/13 10:50:24;;;;;;;24.02;10.82;;;-5.70;99.90;;;;;;5100452;28;20058;-36
2022/12/13 10:52:50;;;;;;;18.17;9.10;;;-5.70;99.90;;;;;;5101154;27;20023;-38
2022/12/13 10:55:27;;;;;;;20.08;10.30;;;-5.60;99.90;;;;;;5100815;28;20027;-40
2022/12/13 10:57:56;;;;;;;13.85;7.68;;;-5.60;99.90;;;;;;5101121;28;20051;-37
2022/12/13 11:00:34;;;;;;;22.50;10.30;;;-5.50;99.90;;;;;;5100210;28;20111;-38
2022/12/13 11:02:59;;;;;;;13.70;8.38;;;-5.50;99.90;;;;;;5103948;27;20076;-39
2022/12/13 11:05:33;;;;;;;14.05;7.35;;;-5.50;99.90;;;;;;5097728;28;20016;-36
2022/12/13 11:08:34;;;;;;;19.52;8.10;;;-5.50;99.90;;;;;;5098682;27;20118;-38
2022/12/13 11:11:02;;;;;;;17.23;8.82;;;-5.40;99.90;;;;;;5024518;28;20037;-39
2022/12/13 11:13:33;;;;;;;23.83;11.57;;;-5.30;99.90;;;;;;5086926;28;20045;-38
2022/12/13 11:16:00;;;;;;;7.45;6.22;;;-5.30;99.90;;;;;;5100060;28;20055;-36
2022/12/13 11:18:31;;;;;;;14.80;8.68;;;-5.20;99.90;;;;;;5104914;27;20032;-36
2022/12/13 11:21:01;;;;;;;19.00;11.60;;;-5.20;99.90;;;;;;5097300;28;20062;-36
2022/12/13 11:23:30;;;;;;;21.15;11.45;;;-5.20;99.90;;;;;;5106229;27;20046;-37
2022/12/13 11:26:04;;;;;;;22.08;10.38;;;-5.10;99.90;;;;;;5097990;28;20052;-39
2022/12/13 11:28:48;;;;;;;19.55;10.75;;;-5.10;99.90;;;;;;5104825;27;20376;-39
2022/12/13 11:31:32;;;;;;;12.60;7.38;;;-5.10;99.90;;;;;;5096202;28;20055;-39
2022/12/13 11:34:34;;;;;;;17.48;9.82;;;-5.10;99.90;;;;;;5100478;27;20035;-38
2022/12/13 11:37:30;;;;;;;19.90;9.70;;;-5.00;99.90;;;;;;5099967;27;20106;-36
2022/12/13 11:40:16;;;;;;;17.25;9.35;;;-5.00;99.90;;;;;;5102383;28;20071;-37
2022/12/13 11:42:54;;;;;;;15.20;9.90;;;-4.90;99.90;;;;;;5104621;28;20121;-37
2022/12/13 11:45:25;;;;;;;17.88;10.40;;;-4.90;99.90;;;;;;5105109;28;20100;-39
2022/12/13 11:48:16;;;;;;;12.50;7.10;;;-4.90;99.90;;;;;;5103937;27;20032;-39
2022/12/13 11:50:50;;;;;;;16.20;8.95;;;-4.80;99.90;;;;;;5098050;27;20040;-36
2022/12/13 11:53:32;;;;;;;16.67;9.68;;;-4.80;99.90;;;;;;5106515;27;20057;-38
2022/12/13 11:56:13;;;;;;;17.42;10.95;;;-4.70;99.90;;;;;;5102361;28;20035;-39
2022/12/13 11:59:06;;;;;;;19.60;10.48;;;-4.70;99.90;;;;;;5100287;28;20036;-38
2022/12/13 12:01:45;;;;;;;22.00;11.60;;;-4.70;99.90;;;;;;5102909;28;20063;-39
2022/12/13 12:04:57;;;;;;;18.13;10.55;;;-4.70;99.90;;;;;;5102219;28;20046;-36
2022/12/13 12:07:59;;;;;;;20.45;10.18;;;-4.60;99.90;;;;;;5071246;28;20052;-38
2022/12/13 12:10:42;;;;;;;18.00;9.57;;;-4.60;99.90;;;;;;5080132;27;20084;-38
2022/12/13 12:13:32;;;;;;;18.70;9.50;;;-4.50;99.90;;;;;;5100834;28;20016;-37
2022/12/13 12:16:15;;;;;;;16.00;10.13;;;-4.50;99.90;;;;;;5097248;28;20035;-37
2022/12/13 12:18:41;;;;;;;24.05;12.48;;;-4.50;99.90;;;;;;5103422;27;20488;-38
2022/12/13 12:21:38;;;;;;;16.65;9.52;;;-4.50;99.90;;;;;;5098959;28;20066;-36
2022/12/13 12:24:22;;;;;;;15.82;12.15;;;-4.50;99.90;;;;;;5096850;28;20044;-36
2022/12/13 12:27:01;;;;;;;15.25;7.32;;;-4.50;99.90;;;;;;5099345;28;20584;-37
2022/12/13 12:30:16;;;;;;;18.25;11.02;;;-4.40;99.90;;;;;;5101586;28;20024;-35
2022/12/13 12:32:51;;;;;;;11.73;6.80;;;-4.50;99.90;;;;;;5086197;28;20036;-37
2022/12/13 12:35:48;;;;;;;29.25;10.43;;;-4.50;99.90;;;;;;5099608;28;20193;-35
2022/12/13 12:38:43;;;;;;;20.17;11.20;;;-4.50;99.90;;;;;;5096117;28;20024;-39
2022/12/13 12:41:27;;;;;;;19.40;9.43;;;-4.40;99.90;;;;;;5098727;28;20055;-38
2022/12/13 12:44:19;;;;;;;18.67;9.77;;;-4.40;99.90;;;;;;5097600;27;20059;-38
2022/12/13 12:46:56;;;;;;;14.73;8.18;;;-4.40;99.90;;;;;;5052494;28;20120;-37
2022/12/13 12:49:45;;;;;;;21.43;9.50;;;-4.30;99.90;;;;;;5100948;28;20047;-37
2022/12/13 12:52:27;;;;;;;21.13;10.52;;;-4.30;99.90;;;;;;5099397;27;20048;-38
2022/12/13 12:55:02;;;;;;;18.58;9.55;;;-4.20;99.90;;;;;;5102206;27;20032;-37
2022/12/13 12:58:09;;;;;;;9.18;6.82;;;-4.20;99.90;;;;;;5098333;27;20032;-36
2022/12/13 13:00:46;;;;;;;15.98;8.32;;;-4.10;99.90;;;;;;5063732;27;20072;-36